Friday, October 24, 2014
18:53 UTC
  |  Log In   |  Register Free
Airport Search:

Richmond Municipal Airport
(KRID)

Richmond Municipal Airport Diagram
No Airport Diagram Available

FAA data valid effective September 18, 2014 - November 13, 2014 (unless otherwise noted).

 
 
 
 
 
 
 
 
 
 
 
 
 
 

Current Aviation Weather for Richmond Municipal Airport (KRID)

METAR data is unavailable for RID. The nearest METAR location is at KMWO (24.7 nm SE from RID).

The most recent METAR observation for KMWO was updated at: 1814
METAR Summary (Translated METAR)
KMWO
241755Z AUTO 18007KT 10SM CLR 17/04 A3008 RMK AO2 T01720044 10176 20026
(24.7 nm SE from KRID)
KHAO
241753Z AUTO 31004KT 10SM CLR 17/06 A3010 RMK AO2 SLP194 T01720056 10178 20011 58014
(27.9 nm SE from KRID)
TAF Summary (Translated TAF)
KDAY
(23.7 nm NE from KMWO)
241743Z 2418/2518 25006KT P6SM FEW150 FM242300 22004KT P6SM SCT050 FM250900 21007KT P6SM BKN050 FM251400 23012KT P6SM BKN035
  Airport Weather Conditions for KRID

Current weather conditions are
not available for RID


The nearest NOAA weather station
is at MWO, (24.7 nm SE from RID)
  
 Current Weather at MWO
63° F
Fair
South winds at 8.1 mph
MWO NOAA Radar

Pressure: 30.08 in
Humidity: 43%
Wind: South at 8.1 MPH (7 KT)
Dew Point: 39.9°F
Visibility: 10.00 mi


Airport Weather Forecast for KRID

Translated METAR and TAF for KMWO
Translated METAR for KMWO (1848 UTC 24 October 2014)
found at http://aviationweather.gov/adds/metars/
 
METAR text: KMWO 241835Z AUTO 25003KT 10SM CLR 18/02 A3008 RMK AO2 T01780020
Conditions at: KMWO (MIDDLETOWN/HOOK , OH, US) observed 1835 UTC 24 October 2014
Temperature: 17.8°C (64°F)
Dewpoint: 2.0°C (36°F) [RH = 35%]
Pressure (altimeter): 30.08 inches Hg (1018.7 mb)
Winds: from the WSW (250 degrees) at 3 MPH (3 knots; 1.6 m/s)
Visibility: 10 or more miles (16+ km)
Ceiling: at least 12,000 feet AGL
Clouds: sky clear below 12,000 feet AGL
Weather: automated observation with no human augmentation;
there may or may not be significant weather present at this time
Translated TAF for KMWO

There is no translated TAF available for this airport

Find All Airport Services Find A Hotel Find A Rental Car Find A Golf Course Find A Restaurant $100 Hamburger



FBO's on the Field
FBO Company Facility Photos Services Transportation Aviation Fuel Prices: Prices include tax
Catering Weather Repair Courtesy Rental Type 100LL JetA JetA+ MOGAS 8087
 
Richmond Municipal Airport

This FBO has not yet been rated
FS: Phillips 66
Last Updated: Oct-15
Login to update fuel prices
SS:
Contact Richmond Municipal AirportMore FBO Information
 
Add another FBO Facility Photos Catering Weather Repair Courtesy Rental Type 100LL JetA JetA+ MOGAS 8087
Services Transportation Aviation Fuel Prices: Prices include tax


model-print
model-print
model-print
model-print